Time;durP1;ratioP1;P1;durP2;ratioP2;P2;SDS_P1;SDS_P2;PMS_P1;PMS_P2;Temp;Humidity;BMP_temperature;BMP_pressure;BME280_temperature;BME280_humidity;BME280_pressure;Samples;Min_cycle;Max_cycle;Signal;HPM_P1;HPM_P2
2021/06/15 00:01:27;;;;;;;5.90;4.17;;;19.00;99.90;;;;;;5051724;28;20422;-69
2021/06/15 00:03:56;;;;;;;6.33;4.17;;;19.00;99.90;;;;;;5051658;28;20401;-69
2021/06/15 00:06:24;;;;;;;4.77;3.60;;;19.00;99.90;;;;;;5052486;28;20425;-70
2021/06/15 00:08:52;;;;;;;4.40;4.00;;;19.00;99.90;;;;;;5052262;28;20419;-69
2021/06/15 00:11:21;;;;;;;5.73;3.27;;;19.10;99.90;;;;;;5052331;28;20451;-69
2021/06/15 00:13:49;;;;;;;5.53;4.40;;;19.10;99.90;;;;;;5051493;28;20427;-69
2021/06/15 00:16:17;;;;;;;5.57;3.90;;;19.20;99.90;;;;;;5051970;28;20462;-70
2021/06/15 00:18:46;;;;;;;5.80;3.60;;;19.10;99.90;;;;;;5057465;28;20865;-70
2021/06/15 00:21:14;;;;;;;5.80;3.63;;;19.00;99.90;;;;;;5057763;28;20442;-70
2021/06/15 00:23:42;;;;;;;8.03;4.47;;;19.00;99.90;;;;;;5065974;28;20426;-69
2021/06/15 00:26:10;;;;;;;4.83;3.87;;;19.00;99.90;;;;;;5068173;28;20458;-69
2021/06/15 00:28:40;;;;;;;5.10;4.50;;;19.00;99.90;;;;;;5060176;28;20430;-69
2021/06/15 00:31:08;;;;;;;4.60;3.30;;;19.10;99.90;;;;;;5052372;28;20529;-69
2021/06/15 00:33:36;;;;;;;7.60;4.70;;;19.00;99.90;;;;;;5051143;28;20394;-69
2021/06/15 00:36:05;;;;;;;7.10;4.43;;;18.90;99.90;;;;;;5051907;28;20446;-68
2021/06/15 00:38:33;;;;;;;7.90;4.10;;;18.90;99.90;;;;;;5051496;28;20435;-69
2021/06/15 00:41:02;;;;;;;5.47;4.70;;;18.80;99.90;;;;;;5049748;28;20988;-70
2021/06/15 00:43:30;;;;;;;5.40;3.93;;;18.70;99.90;;;;;;5050855;28;20469;-69
2021/06/15 00:45:59;;;;;;;6.20;5.60;;;18.70;99.90;;;;;;5050071;28;20917;-69
2021/06/15 00:48:32;;;;;;;7.90;4.40;;;18.70;99.90;;;;;;5050971;28;20419;-70
2021/06/15 00:51:01;;;;;;;3.87;3.40;;;18.70;99.90;;;;;;5051132;28;20447;-70
2021/06/15 00:53:31;;;;;;;10.10;4.70;;;18.70;99.90;;;;;;5050742;28;20984;-68
2021/06/15 00:56:00;;;;;;;4.50;3.63;;;18.60;99.90;;;;;;5050861;28;20437;-69
2021/06/15 00:58:30;;;;;;;5.30;4.13;;;18.50;99.90;;;;;;5048953;28;20427;-69
2021/06/15 01:01:01;;;;;;;7.30;4.93;;;18.50;99.90;;;;;;5049229;28;20459;-69
2021/06/15 01:03:30;;;;;;;6.50;5.87;;;18.50;99.90;;;;;;5048902;28;20409;-70
2021/06/15 01:06:03;;;;;;;8.37;4.73;;;18.50;99.90;;;;;;5049301;28;20414;-70
2021/06/15 01:08:39;;;;;;;7.43;4.93;;;18.50;99.90;;;;;;5049447;28;20410;-69
2021/06/15 01:11:16;;;;;;;8.63;4.70;;;18.60;99.90;;;;;;5050336;28;20447;-69
2021/06/15 01:13:55;;;;;;;9.13;5.43;;;18.50;99.90;;;;;;5048674;28;21024;-70
2021/06/15 01:16:32;;;;;;;6.00;4.60;;;18.50;99.90;;;;;;5048915;28;20471;-69
2021/06/15 01:19:05;;;;;;;6.80;5.80;;;18.50;99.90;;;;;;5048724;28;20439;-69
2021/06/15 01:21:45;;;;;;;5.37;4.10;;;18.40;99.90;;;;;;5050168;28;20947;-70
2021/06/15 01:24:26;;;;;;;5.77;4.53;;;18.40;99.90;;;;;;5048765;28;20490;-69
2021/06/15 01:27:25;;;;;;;8.30;4.00;;;18.40;99.90;;;;;;5050034;28;20508;-69
2021/06/15 01:29:57;;;;;;;8.67;4.97;;;18.50;99.90;;;;;;5050408;28;20964;-69
2021/06/15 01:32:29;;;;;;;10.60;4.73;;;18.50;99.90;;;;;;5048254;28;20445;-69
2021/06/15 01:35:00;;;;;;;6.77;4.30;;;18.50;99.90;;;;;;5048470;28;20412;-69
2021/06/15 01:37:33;;;;;;;9.70;4.97;;;18.50;99.90;;;;;;5049105;28;20449;-69
2021/06/15 01:40:08;;;;;;;5.73;4.97;;;18.50;99.90;;;;;;5049229;28;20441;-69
2021/06/15 01:42:50;;;;;;;5.17;4.67;;;18.50;99.90;;;;;;5049284;28;20466;-70
2021/06/15 01:45:22;;;;;;;4.80;4.40;;;18.50;99.90;;;;;;5049818;28;20416;-72
2021/06/15 01:48:05;;;;;;;5.27;4.03;;;18.50;99.90;;;;;;5050875;28;20957;-70
2021/06/15 01:50:38;;;;;;;10.37;4.10;;;18.50;99.90;;;;;;5048075;28;20876;-70
2021/06/15 01:53:10;;;;;;;5.40;4.90;;;18.50;99.90;;;;;;5047220;28;20853;-68
2021/06/15 01:55:43;;;;;;;4.30;3.87;;;18.40;99.90;;;;;;5048129;28;20513;-68
2021/06/15 01:58:14;;;;;;;4.97;4.43;;;18.40;99.90;;;;;;5049568;28;20415;-68
2021/06/15 02:00:46;;;;;;;6.07;4.70;;;18.40;99.90;;;;;;5049282;28;20522;-68
2021/06/15 02:03:14;;;;;;;6.60;6.00;;;18.40;99.90;;;;;;5047973;28;20413;-68
2021/06/15 02:05:48;;;;;;;5.27;4.77;;;18.50;99.90;;;;;;5049671;28;20394;-68
2021/06/15 02:08:22;;;;;;;6.30;4.80;;;18.40;99.90;;;;;;5049934;28;20429;-69
2021/06/15 02:10:52;;;;;;;4.90;3.97;;;18.30;99.90;;;;;;5047824;28;20464;-69
2021/06/15 02:13:47;;;;;;;5.53;5.03;;;18.30;99.90;;;;;;5047627;28;20471;-68
2021/06/15 02:16:50;;;;;;;5.00;4.50;;;18.30;99.90;;;;;;5048678;28;20463;-69
2021/06/15 02:19:27;;;;;;;5.67;4.73;;;18.20;99.90;;;;;;5048480;28;20504;-69
2021/06/15 02:21:58;;;;;;;5.63;5.10;;;18.20;99.90;;;;;;5047939;28;20770;-69
2021/06/15 02:24:33;;;;;;;6.80;5.17;;;18.20;99.90;;;;;;5047795;28;20543;-69
2021/06/15 02:27:04;;;;;;;7.50;5.47;;;18.30;99.90;;;;;;5048128;28;20405;-69
2021/06/15 02:29:32;;;;;;;5.63;5.03;;;18.20;99.90;;;;;;5047999;28;20546;-69
2021/06/15 02:32:04;;;;;;;6.33;4.30;;;18.20;99.90;;;;;;5049156;28;20484;-69
2021/06/15 02:34:36;;;;;;;6.40;5.43;;;18.20;99.90;;;;;;5049295;28;20866;-69
2021/06/15 02:37:08;;;;;;;5.90;4.90;;;18.20;99.90;;;;;;5049618;28;20466;-70
2021/06/15 02:39:39;;;;;;;8.47;5.33;;;18.20;99.90;;;;;;5047720;28;20504;-69
2021/06/15 02:42:13;;;;;;;4.90;4.20;;;18.40;99.90;;;;;;5048878;28;20920;-69
2021/06/15 02:44:46;;;;;;;6.00;4.10;;;18.50;99.90;;;;;;5049137;28;20402;-69
2021/06/15 02:47:20;;;;;;;5.67;5.07;;;18.50;99.90;;;;;;5049131;28;20428;-69
2021/06/15 02:49:52;;;;;;;5.10;3.63;;;18.50;99.90;;;;;;5048679;28;20437;-69
2021/06/15 02:52:29;;;;;;;4.90;4.40;;;18.40;99.90;;;;;;5047236;28;20739;-70
2021/06/15 02:55:01;;;;;;;7.43;4.73;;;18.30;99.90;;;;;;5049010;28;20502;-69
2021/06/15 02:57:30;;;;;;;4.60;4.20;;;18.20;99.90;;;;;;5048429;28;20449;-70
2021/06/15 02:59:59;;;;;;;5.50;4.50;;;18.40;99.90;;;;;;5049865;28;20449;-70
2021/06/15 03:02:29;;;;;;;4.50;4.10;;;18.50;99.90;;;;;;5049782;28;20940;-70
2021/06/15 03:04:57;;;;;;;5.57;4.97;;;18.60;99.90;;;;;;5052614;28;20410;-70
2021/06/15 03:07:32;;;;;;;4.57;3.93;;;18.60;99.90;;;;;;5054305;28;20942;-70
2021/06/15 03:10:04;;;;;;;5.10;4.47;;;18.70;99.90;;;;;;5052415;28;20457;-71
2021/06/15 03:12:40;;;;;;;5.43;4.40;;;18.80;99.90;;;;;;5052445;28;20447;-69
2021/06/15 03:15:12;;;;;;;3.90;3.60;;;18.70;99.90;;;;;;5054679;28;20542;-68
2021/06/15 03:17:51;;;;;;;9.20;4.53;;;18.70;99.90;;;;;;5055088;28;20487;-69
2021/06/15 03:20:25;;;;;;;4.90;4.30;;;18.80;99.90;;;;;;5066958;23;20458;-81
2021/06/15 03:22:58;;;;;;;8.60;6.60;;;18.90;99.90;;;;;;5027749;28;20407;-81
2021/06/15 03:25:34;;;;;;;7.10;5.23;;;18.90;99.90;;;;;;5021998;28;20397;-82
2021/06/15 03:28:10;;;;;;;5.73;4.70;;;19.00;99.90;;;;;;5024830;28;20428;-82
2021/06/15 03:30:42;;;;;;;6.40;4.70;;;19.10;99.90;;;;;;5004097;28;20453;-83
2021/06/15 03:33:17;;;;;;;5.43;4.23;;;19.20;99.90;;;;;;5003643;28;20897;-82
2021/06/15 03:35:51;;;;;;;4.67;4.20;;;19.20;99.90;;;;;;5021138;28;20397;-82
2021/06/15 03:38:20;;;;;;;5.10;4.60;;;19.30;99.90;;;;;;5003601;28;20480;-82
2021/06/15 03:40:51;;;;;;;6.23;5.27;;;19.30;99.90;;;;;;5021113;28;20914;-82
2021/06/15 03:43:21;;;;;;;7.23;4.77;;;19.60;99.90;;;;;;5021261;28;20432;-82
2021/06/15 03:45:55;;;;;;;5.27;4.83;;;19.80;99.90;;;;;;5022558;28;20425;-83
2021/06/15 03:48:27;;;;;;;6.70;4.53;;;20.00;99.90;;;;;;5029388;28;20775;-81
2021/06/15 03:50:58;;;;;;;7.77;4.37;;;20.30;99.90;;;;;;5028499;28;20451;-81
2021/06/15 03:53:30;;;;;;;4.70;3.43;;;20.60;99.90;;;;;;5028824;28;20421;-81
2021/06/15 03:56:03;;;;;;;8.17;5.60;;;20.80;99.90;;;;;;5028431;28;20512;-81
2021/06/15 03:58:33;;;;;;;5.00;4.23;;;20.90;99.90;;;;;;5003128;28;20468;-82
2021/06/15 04:01:02;;;;;;;3.83;3.47;;;20.90;99.90;;;;;;5020257;28;20483;-82
2021/06/15 04:03:36;;;;;;;6.20;5.13;;;20.90;99.90;;;;;;5020880;28;20508;-82
2021/06/15 04:06:08;;;;;;;6.10;4.63;;;20.70;99.90;;;;;;5019613;28;20433;-82
2021/06/15 04:08:38;;;;;;;7.03;5.20;;;20.70;99.90;;;;;;5021041;28;20499;-82
2021/06/15 04:11:07;;;;;;;6.57;4.43;;;20.70;99.90;;;;;;5003056;28;20432;-81
2021/06/15 04:13:36;;;;;;;6.23;5.20;;;20.60;99.90;;;;;;5020099;28;20763;-82
2021/06/15 04:16:06;;;;;;;6.03;4.87;;;20.70;99.90;;;;;;5019825;28;20411;-81
2021/06/15 04:18:38;;;;;;;5.20;4.70;;;20.90;99.90;;;;;;5020356;28;20525;-82
2021/06/15 04:21:08;;;;;;;6.73;4.37;;;20.70;99.90;;;;;;5021132;28;20492;-82
2021/06/15 04:23:42;;;;;;;8.20;5.33;;;20.90;99.90;;;;;;5019778;28;20525;-82
2021/06/15 04:26:10;;;;;;;6.87;4.30;;;21.20;99.90;;;;;;5026358;28;20420;-83
2021/06/15 04:28:39;;;;;;;6.47;3.80;;;21.80;99.90;;;;;;5039921;28;20466;-83
2021/06/15 04:31:08;;;;;;;5.33;4.80;;;22.10;99.90;;;;;;5040329;28;20467;-83
2021/06/15 04:33:41;;;;;;;6.50;5.30;;;22.40;99.90;;;;;;5040177;28;20437;-82
2021/06/15 04:36:09;;;;;;;7.83;5.00;;;22.50;99.90;;;;;;5040323;28;20426;-81
2021/06/15 04:38:44;;;;;;;5.33;4.83;;;22.50;99.90;;;;;;5041622;28;20430;-79
2021/06/15 04:41:17;;;;;;;5.50;4.07;;;22.60;99.90;;;;;;5049129;28;20474;-79
2021/06/15 04:43:49;;;;;;;6.10;5.20;;;22.60;99.90;;;;;;5057342;28;20495;-79
2021/06/15 04:46:21;;;;;;;5.13;4.40;;;22.40;99.90;;;;;;5055318;28;20480;-79
2021/06/15 04:48:56;;;;;;;6.27;5.17;;;22.40;99.90;;;;;;5055702;28;20753;-80
2021/06/15 04:51:24;;;;;;;6.67;6.00;;;22.70;99.90;;;;;;5039295;28;20393;-80
2021/06/15 04:53:58;;;;;;;7.10;4.40;;;22.70;99.90;;;;;;5058337;28;20839;-81
2021/06/15 04:56:29;;;;;;;6.00;5.20;;;23.00;99.90;;;;;;5058938;28;20377;-80
2021/06/15 04:58:58;;;;;;;5.73;5.17;;;23.90;99.90;;;;;;5058163;28;20810;-81
2021/06/15 05:01:27;;;;;;;8.93;6.00;;;24.40;99.90;;;;;;5057471;28;20423;-81
2021/06/15 05:03:58;;;;;;;8.47;5.30;;;25.90;99.90;;;;;;5041477;28;20941;-81
2021/06/15 05:06:26;;;;;;;7.97;5.10;;;26.80;99.90;;;;;;5059119;28;20390;-81
2021/06/15 05:08:58;;;;;;;5.73;5.23;;;26.70;99.90;;;;;;5054529;28;20419;-81
2021/06/15 05:11:27;;;;;;;7.27;5.00;;;26.30;99.90;;;;;;5057933;28;20947;-81
2021/06/15 05:13:57;;;;;;;6.33;5.73;;;26.00;99.90;;;;;;5040889;28;20527;-81
2021/06/15 05:16:26;;;;;;;6.07;4.63;;;25.60;99.90;;;;;;5041781;28;20851;-82
2021/06/15 05:18:54;;;;;;;7.50;4.90;;;24.50;99.90;;;;;;5039920;28;20977;-80
2021/06/15 05:21:27;;;;;;;8.33;6.30;;;24.30;99.90;;;;;;5023955;28;20464;-81
2021/06/15 05:23:59;;;;;;;6.07;5.27;;;24.50;99.90;;;;;;5040648;28;20384;-82
2021/06/15 05:26:27;;;;;;;6.00;5.50;;;24.30;99.90;;;;;;5042092;28;20736;-81
2021/06/15 05:28:55;;;;;;;5.20;4.57;;;24.30;99.90;;;;;;5041098;28;20403;-80
2021/06/15 05:31:23;;;;;;;6.57;5.13;;;23.90;99.90;;;;;;5048385;28;20422;-81
2021/06/15 05:33:52;;;;;;;8.50;5.70;;;23.30;99.90;;;;;;5047269;28;20428;-80
2021/06/15 05:36:20;;;;;;;4.90;4.50;;;22.80;99.90;;;;;;5027123;28;20443;-80
2021/06/15 05:38:49;;;;;;;9.70;5.33;;;22.40;99.90;;;;;;5021217;28;20459;-81
2021/06/15 05:41:18;;;;;;;8.27;6.57;;;22.10;99.90;;;;;;5046390;28;20444;-80
2021/06/15 05:43:46;;;;;;;5.60;5.10;;;21.90;99.90;;;;;;5045891;28;20413;-81
2021/06/15 05:46:15;;;;;;;7.10;5.57;;;21.70;99.90;;;;;;5046909;28;20393;-81
2021/06/15 05:48:46;;;;;;;5.47;4.87;;;21.70;99.90;;;;;;5051939;28;20420;-82
2021/06/15 05:51:15;;;;;;;8.17;5.80;;;21.40;99.90;;;;;;5053441;28;21055;-81
2021/06/15 05:53:43;;;;;;;5.10;4.67;;;21.30;99.90;;;;;;5052464;28;20417;-81
2021/06/15 05:56:12;;;;;;;5.00;4.50;;;21.20;99.90;;;;;;5044508;28;20409;-82
2021/06/15 05:58:40;;;;;;;5.23;4.73;;;21.00;99.90;;;;;;5037346;28;20471;-81
2021/06/15 06:01:08;;;;;;;5.20;4.70;;;21.00;99.90;;;;;;5040065;28;20498;-81
2021/06/15 06:03:38;;;;;;;6.60;5.90;;;21.30;99.90;;;;;;5039261;28;20432;-81
2021/06/15 06:08:52;;;;;;;8.27;6.70;;;21.80;99.90;;;;;;5046079;28;20455;-80
2021/06/15 06:11:22;;;;;;;10.50;5.63;;;21.80;99.90;;;;;;5038700;28;20435;-82
2021/06/15 06:13:53;;;;;;;7.73;5.63;;;22.20;99.90;;;;;;5037060;28;20429;-80
2021/06/15 06:16:21;;;;;;;6.10;5.50;;;22.10;99.90;;;;;;5036945;28;20430;-80
2021/06/15 06:19:10;;;;;;;5.83;4.57;;;22.20;99.90;;;;;;5035636;28;20957;-81
2021/06/15 06:21:39;;;;;;;12.30;6.07;;;22.60;99.90;;;;;;5035582;28;20421;-81
2021/06/15 06:24:08;;;;;;;6.80;5.50;;;22.70;99.90;;;;;;5037706;28;20433;-79
2021/06/15 06:26:38;;;;;;;5.53;4.60;;;22.70;99.90;;;;;;5038538;28;20481;-80
2021/06/15 06:29:07;;;;;;;9.30;6.50;;;22.50;99.90;;;;;;5041306;28;20409;-81
2021/06/15 06:31:35;;;;;;;6.20;5.70;;;22.90;99.90;;;;;;5017141;28;20439;-80
2021/06/15 06:34:04;;;;;;;6.47;5.87;;;22.50;99.90;;;;;;5035435;28;20518;-81
2021/06/15 06:36:32;;;;;;;7.37;5.50;;;22.20;99.90;;;;;;5035911;28;20412;-81
2021/06/15 06:39:02;;;;;;;7.43;5.30;;;22.40;99.90;;;;;;5037614;28;20460;-80
2021/06/15 06:41:30;;;;;;;7.40;5.93;;;22.30;99.90;;;;;;5040290;28;20404;-80
2021/06/15 06:44:00;;;;;;;7.23;5.00;;;22.20;99.90;;;;;;5039757;28;20796;-80
2021/06/15 06:46:29;;;;;;;5.80;5.20;;;22.40;99.90;;;;;;5040030;28;20488;-80
2021/06/15 06:48:57;;;;;;;5.30;4.83;;;22.30;99.90;;;;;;5022322;28;20463;-81
2021/06/15 06:51:26;;;;;;;12.20;6.33;;;22.40;99.90;;;;;;5021047;28;20443;-81
2021/06/15 06:53:55;;;;;;;5.63;5.03;;;22.00;99.90;;;;;;5021388;28;20440;-81
2021/06/15 06:56:23;;;;;;;8.30;5.87;;;22.40;99.90;;;;;;5042860;28;20478;-82
2021/06/15 06:58:51;;;;;;;6.90;5.40;;;22.40;99.90;;;;;;5042928;28;20504;-80
2021/06/15 07:01:21;;;;;;;7.93;6.10;;;22.60;99.90;;;;;;5039115;28;20440;-81
2021/06/15 07:03:50;;;;;;;6.53;5.20;;;22.80;99.90;;;;;;5042217;28;20408;-81
2021/06/15 07:06:18;;;;;;;10.43;5.43;;;23.00;99.90;;;;;;5047353;28;20415;-81
2021/06/15 07:08:47;;;;;;;6.60;5.63;;;23.40;99.90;;;;;;5045675;28;20474;-81
2021/06/15 07:11:16;;;;;;;5.90;5.23;;;23.50;99.90;;;;;;5040910;28;20848;-81
2021/06/15 07:13:48;;;;;;;6.30;5.10;;;23.30;99.90;;;;;;5040671;28;20412;-81
2021/06/15 07:16:16;;;;;;;6.43;5.80;;;23.40;99.90;;;;;;5041261;28;20412;-80
2021/06/15 07:18:46;;;;;;;6.20;5.60;;;23.30;99.90;;;;;;5040940;28;20480;-80
2021/06/15 07:21:14;;;;;;;8.37;5.50;;;23.20;99.90;;;;;;5046298;28;20430;-80
2021/06/15 07:23:42;;;;;;;7.03;5.20;;;23.20;99.90;;;;;;5047305;28;20419;-81
2021/06/15 07:26:11;;;;;;;7.33;5.43;;;23.00;99.90;;;;;;5048934;28;20479;-79
2021/06/15 07:28:39;;;;;;;6.70;5.23;;;22.90;99.90;;;;;;5044639;28;20420;-81
2021/06/15 07:31:07;;;;;;;6.67;5.97;;;22.80;99.90;;;;;;5025956;28;20464;-83
2021/06/15 07:33:35;;;;;;;6.90;6.20;;;22.80;99.90;;;;;;5043970;28;20962;-83
2021/06/15 07:36:06;;;;;;;7.80;5.73;;;22.70;99.90;;;;;;5042916;28;20409;-82
2021/06/15 07:38:34;;;;;;;15.83;5.47;;;22.80;99.90;;;;;;5042547;28;20440;-80
2021/06/15 07:41:02;;;;;;;10.43;5.80;;;22.90;99.90;;;;;;5043928;28;20861;-82
2021/06/15 07:43:31;;;;;;;10.10;6.30;;;23.00;99.90;;;;;;5039439;28;20982;-79
2021/06/15 07:46:00;;;;;;;7.57;6.23;;;23.30;99.90;;;;;;5041650;28;20458;-80
2021/06/15 07:48:28;;;;;;;7.07;6.43;;;23.60;99.90;;;;;;5039227;28;20452;-81
2021/06/15 07:50:56;;;;;;;8.07;5.47;;;23.90;99.90;;;;;;5029837;28;20440;-80
2021/06/15 07:53:26;;;;;;;6.00;5.40;;;24.10;99.90;;;;;;5028910;28;20887;-80
2021/06/15 07:55:54;;;;;;;8.63;5.50;;;24.30;99.90;;;;;;5031579;28;20420;-81
2021/06/15 07:58:22;;;;;;;8.40;6.90;;;24.40;99.90;;;;;;5041557;28;20463;-80
2021/06/15 08:00:51;;;;;;;12.80;7.63;;;24.70;99.90;;;;;;5040556;28;20476;-80
2021/06/15 08:03:19;;;;;;;5.63;4.70;;;24.80;99.90;;;;;;5043360;28;20431;-81
2021/06/15 08:05:47;;;;;;;7.87;7.00;;;24.70;99.90;;;;;;5044405;28;20431;-80
2021/06/15 08:08:15;;;;;;;8.20;6.03;;;24.40;99.90;;;;;;5041292;28;20443;-81
2021/06/15 08:10:44;;;;;;;5.73;5.23;;;24.40;99.90;;;;;;5041576;28;20444;-80
2021/06/15 08:13:12;;;;;;;5.67;4.53;;;24.30;99.90;;;;;;5023801;28;20433;-80
2021/06/15 08:15:40;;;;;;;8.30;4.80;;;24.40;99.90;;;;;;5023675;28;20512;-80
2021/06/15 08:18:09;;;;;;;6.20;5.00;;;24.20;99.90;;;;;;5024187;28;20440;-79
2021/06/15 08:20:37;;;;;;;7.50;5.00;;;24.00;99.90;;;;;;5039219;28;21009;-80
2021/06/15 08:23:05;;;;;;;5.57;5.03;;;23.80;99.90;;;;;;5042809;28;20447;-80
2021/06/15 08:25:33;;;;;;;6.07;4.90;;;24.00;99.90;;;;;;5040825;28;20960;-81
2021/06/15 08:28:05;;;;;;;5.40;4.70;;;23.90;99.90;;;;;;5043369;28;20547;-82
2021/06/15 08:30:33;;;;;;;6.00;5.20;;;23.90;99.90;;;;;;5040852;28;20770;-80
2021/06/15 08:33:02;;;;;;;7.23;4.87;;;23.50;99.90;;;;;;5044969;28;20460;-80
2021/06/15 08:35:30;;;;;;;6.60;5.10;;;23.40;99.90;;;;;;5046447;28;20520;-81
2021/06/15 08:37:58;;;;;;;6.00;5.37;;;23.50;99.90;;;;;;5045361;28;20428;-81
2021/06/15 08:40:27;;;;;;;4.60;4.10;;;23.50;99.90;;;;;;5045534;28;20467;-81
2021/06/15 08:42:55;;;;;;;5.60;4.63;;;23.70;99.90;;;;;;5048343;28;20427;-84
2021/06/15 08:45:25;;;;;;;6.50;4.83;;;23.70;99.90;;;;;;5045180;28;20503;-84
2021/06/15 08:47:55;;;;;;;4.70;4.30;;;24.00;99.90;;;;;;5045133;28;20451;-84
2021/06/15 08:50:25;;;;;;;5.47;4.90;;;23.50;99.90;;;;;;5045764;28;20447;-83
2021/06/15 08:52:54;;;;;;;6.30;4.97;;;23.40;99.90;;;;;;5046258;28;20424;-82
2021/06/15 08:55:29;;;;;;;8.77;4.77;;;23.80;99.90;;;;;;5045623;28;20455;-83
2021/06/15 08:58:10;;;;;;;5.63;4.27;;;23.80;99.90;;;;;;5030520;28;20507;-83
2021/06/15 09:00:40;;;;;;;5.50;4.93;;;23.90;99.90;;;;;;5028427;28;20507;-84
2021/06/15 09:03:12;;;;;;;5.27;4.07;;;23.90;99.90;;;;;;5026677;28;20424;-82
2021/06/15 09:05:40;;;;;;;4.00;3.60;;;24.00;99.90;;;;;;5045553;28;20428;-84
2021/06/15 09:08:10;;;;;;;6.50;5.83;;;24.40;99.90;;;;;;5027297;28;20417;-85
2021/06/15 09:10:40;;;;;;;5.20;4.70;;;24.30;99.90;;;;;;5045580;28;20540;-84
2021/06/15 09:13:30;;;;;;;4.37;3.73;;;24.30;99.90;;;;;;5044543;28;20412;-83
2021/06/15 09:15:59;;;;;;;7.20;4.53;;;24.30;99.90;;;;;;5044481;28;20428;-83
2021/06/15 09:18:29;;;;;;;4.77;4.27;;;24.50;99.90;;;;;;5045657;28;20450;-83
2021/06/15 09:21:01;;;;;;;6.43;5.43;;;24.30;99.90;;;;;;5084206;22;21041;-68
2021/06/15 09:23:33;;;;;;;5.27;4.40;;;24.60;99.90;;;;;;5052015;28;20940;-69
2021/06/15 09:26:02;;;;;;;6.90;4.93;;;24.70;99.90;;;;;;5071143;28;20862;-68
2021/06/15 09:28:31;;;;;;;4.53;4.13;;;25.00;99.90;;;;;;5071693;28;20414;-68
2021/06/15 09:31:03;;;;;;;4.40;4.00;;;25.30;99.90;;;;;;5071095;28;20450;-68
2021/06/15 09:33:40;;;;;;;7.77;4.80;;;25.10;99.90;;;;;;5070723;28;20422;-68
2021/06/15 09:36:26;;;;;;;5.30;4.73;;;24.80;99.90;;;;;;5071484;28;20513;-69
2021/06/15 09:38:55;;;;;;;6.20;5.50;;;24.60;99.90;;;;;;5071177;28;20841;-68
2021/06/15 09:41:38;;;;;;;6.53;4.97;;;24.40;99.90;;;;;;5052892;28;20508;-67
2021/06/15 09:44:14;;;;;;;6.70;5.17;;;24.40;99.90;;;;;;5070132;28;20442;-70
2021/06/15 09:46:48;;;;;;;6.70;5.10;;;24.30;99.90;;;;;;5067822;28;20985;-67
2021/06/15 09:49:30;;;;;;;5.50;4.97;;;24.00;99.90;;;;;;5066487;28;20429;-68
2021/06/15 09:52:20;;;;;;;9.00;5.43;;;24.10;99.90;;;;;;5067976;28;20418;-68
2021/06/15 09:54:50;;;;;;;7.40;5.40;;;23.90;99.90;;;;;;5070685;28;20513;-68
2021/06/15 09:57:21;;;;;;;5.90;5.40;;;23.90;99.90;;;;;;5070837;28;20438;-68
2021/06/15 10:00:02;;;;;;;8.13;6.30;;;23.70;99.90;;;;;;5070627;28;20439;-67
2021/06/15 10:02:33;;;;;;;5.77;5.27;;;23.40;99.90;;;;;;5070733;28;20449;-68
2021/06/15 10:05:19;;;;;;;6.37;5.70;;;23.50;99.90;;;;;;5070796;28;20429;-69
2021/06/15 10:07:47;;;;;;;7.37;6.13;;;23.50;99.90;;;;;;5070754;28;20510;-68
2021/06/15 10:10:17;;;;;;;6.80;6.10;;;23.60;99.90;;;;;;5070384;28;20474;-68
2021/06/15 10:12:47;;;;;;;5.50;5.00;;;24.00;99.90;;;;;;5069604;28;20446;-68
2021/06/15 10:15:16;;;;;;;6.70;5.97;;;24.50;99.90;;;;;;5070418;28;20524;-69
2021/06/15 10:17:46;;;;;;;7.83;6.87;;;24.60;99.90;;;;;;5070351;28;20987;-68
2021/06/15 10:20:17;;;;;;;6.83;6.07;;;24.30;99.90;;;;;;5070134;28;20470;-69
2021/06/15 10:22:46;;;;;;;6.50;5.90;;;24.30;99.90;;;;;;5070031;28;20414;-69
2021/06/15 10:25:15;;;;;;;5.87;5.10;;;24.00;99.90;;;;;;5070610;28;21193;-68
2021/06/15 10:27:44;;;;;;;9.37;6.57;;;24.00;99.90;;;;;;5070518;28;20479;-68
2021/06/15 10:30:14;;;;;;;9.20;6.80;;;23.60;99.90;;;;;;5070031;28;20434;-69
2021/06/15 10:32:56;;;;;;;5.80;5.30;;;23.60;99.90;;;;;;5070168;28;20801;-69
2021/06/15 10:35:42;;;;;;;5.93;5.30;;;23.90;99.90;;;;;;5069941;28;20429;-69
2021/06/15 10:38:12;;;;;;;6.83;6.20;;;23.70;99.90;;;;;;5070373;28;20485;-68
2021/06/15 10:41:02;;;;;;;7.40;6.10;;;23.80;99.90;;;;;;5069829;28;20580;-68
2021/06/15 10:43:42;;;;;;;6.90;6.00;;;24.10;99.90;;;;;;5065950;28;20470;-68
2021/06/15 10:46:26;;;;;;;6.93;6.33;;;24.10;99.90;;;;;;5069990;28;20462;-68
2021/06/15 10:49:01;;;;;;;6.27;5.67;;;24.10;99.90;;;;;;5070194;28;20433;-70
2021/06/15 10:51:37;;;;;;;8.37;6.40;;;24.20;99.90;;;;;;5070150;28;20430;-68
2021/06/15 10:54:33;;;;;;;9.33;6.00;;;24.10;99.90;;;;;;5069727;28;20504;-70
2021/06/15 10:57:23;;;;;;;7.23;5.43;;;24.10;99.90;;;;;;5070041;28;20422;-69
2021/06/15 11:00:13;;;;;;;6.03;5.47;;;24.00;99.90;;;;;;5069886;28;20801;-68
2021/06/15 11:03:19;;;;;;;7.03;6.27;;;24.20;99.90;;;;;;5066261;28;20514;-68
2021/06/15 11:05:56;;;;;;;5.77;5.27;;;24.60;99.90;;;;;;5052149;28;20912;-68
2021/06/15 11:08:25;;;;;;;4.67;4.17;;;24.60;99.90;;;;;;5070347;28;20509;-68
2021/06/15 11:10:56;;;;;;;7.10;5.70;;;24.60;99.90;;;;;;5070034;28;20453;-68
2021/06/15 11:13:41;;;;;;;6.70;6.00;;;24.50;99.90;;;;;;5070174;28;20423;-68
2021/06/15 11:16:21;;;;;;;5.77;4.90;;;24.30;99.90;;;;;;5070506;28;20816;-68
2021/06/15 11:19:21;;;;;;;8.17;5.57;;;24.20;99.90;;;;;;5070022;28;20507;-68
2021/06/15 11:21:53;;;;;;;7.53;5.57;;;24.20;99.90;;;;;;5060454;28;20524;-69
2021/06/15 11:24:22;;;;;;;6.53;5.43;;;23.90;99.90;;;;;;5071951;28;20449;-70
2021/06/15 11:26:53;;;;;;;7.63;5.97;;;23.80;99.90;;;;;;5074035;28;20526;-69
2021/06/15 11:29:31;;;;;;;6.80;6.20;;;23.60;99.90;;;;;;5073672;28;20996;-69
2021/06/15 11:32:21;;;;;;;10.60;7.33;;;23.60;99.90;;;;;;5073676;28;20815;-68
2021/06/15 11:35:19;;;;;;;6.07;5.47;;;23.70;99.90;;;;;;5074522;28;20993;-69
2021/06/15 11:37:51;;;;;;;7.70;7.10;;;23.60;99.90;;;;;;5074762;28;20422;-70
2021/06/15 11:40:23;;;;;;;6.60;6.00;;;23.90;99.90;;;;;;5074029;28;20442;-68
2021/06/15 11:42:53;;;;;;;7.47;6.07;;;23.90;99.90;;;;;;5055668;28;20461;-68
2021/06/15 11:45:35;;;;;;;7.27;6.10;;;24.00;99.90;;;;;;5074005;28;20492;-69
2021/06/15 11:48:18;;;;;;;8.30;6.30;;;23.50;99.90;;;;;;5073491;28;20516;-70
2021/06/15 11:50:48;;;;;;;6.90;6.30;;;23.50;99.90;;;;;;5055357;28;20465;-69
2021/06/15 11:53:20;;;;;;;6.33;5.83;;;23.60;99.90;;;;;;5073052;28;20773;-68
2021/06/15 11:55:50;;;;;;;6.00;5.43;;;23.60;99.90;;;;;;5055210;28;20442;-69
2021/06/15 11:58:20;;;;;;;6.10;5.50;;;23.80;99.90;;;;;;5056359;28;20441;-69
2021/06/15 12:00:50;;;;;;;6.57;5.97;;;24.00;99.90;;;;;;5074834;28;20446;-70
2021/06/15 12:03:21;;;;;;;10.77;6.83;;;23.80;99.90;;;;;;5076768;28;20414;-68
2021/06/15 12:05:52;;;;;;;7.67;6.57;;;23.90;99.90;;;;;;5074377;28;20412;-69
2021/06/15 12:08:22;;;;;;;10.93;7.20;;;24.20;99.90;;;;;;5074166;28;20844;-69
2021/06/15 12:10:51;;;;;;;7.30;5.63;;;24.50;99.90;;;;;;5073579;28;20442;-70
2021/06/15 12:13:21;;;;;;;7.30;6.47;;;24.70;99.90;;;;;;5072721;28;20427;-69
2021/06/15 12:15:54;;;;;;;9.23;6.87;;;24.40;99.90;;;;;;5071597;28;20475;-67
2021/06/15 12:18:32;;;;;;;7.93;6.07;;;24.50;99.90;;;;;;5072798;28;20450;-68
2021/06/15 12:21:02;;;;;;;6.80;6.20;;;25.10;99.90;;;;;;5072174;28;20450;-68
2021/06/15 12:23:35;;;;;;;7.33;6.63;;;25.60;99.90;;;;;;5071421;28;20422;-69
2021/06/15 12:26:22;;;;;;;9.43;6.63;;;25.40;99.90;;;;;;5070772;28;20858;-69
2021/06/15 12:28:54;;;;;;;7.00;5.97;;;24.90;99.90;;;;;;5072941;28;20429;-70
2021/06/15 12:31:24;;;;;;;9.57;5.47;;;24.70;99.90;;;;;;5072682;28;20438;-68
2021/06/15 12:33:54;;;;;;;10.90;5.93;;;24.70;99.90;;;;;;5072347;28;20426;-68
2021/06/15 12:36:24;;;;;;;6.07;5.47;;;24.90;99.90;;;;;;5071545;28;20438;-68
2021/06/15 12:39:08;;;;;;;6.00;4.70;;;25.30;99.90;;;;;;5072296;28;20765;-68
2021/06/15 12:41:38;;;;;;;5.70;5.20;;;25.10;99.90;;;;;;5071841;28;20494;-67
2021/06/15 12:44:07;;;;;;;6.80;5.33;;;25.10;99.90;;;;;;5071507;28;20521;-68
2021/06/15 12:46:37;;;;;;;7.43;5.73;;;24.80;99.90;;;;;;5071856;28;20422;-69
2021/06/15 12:49:08;;;;;;;6.90;6.20;;;24.80;99.90;;;;;;5071927;28;20830;-68
2021/06/15 12:51:44;;;;;;;5.47;4.80;;;24.80;99.90;;;;;;5071870;28;20485;-68
2021/06/15 12:54:19;;;;;;;6.93;5.53;;;24.80;99.90;;;;;;5071971;28;20870;-68
2021/06/15 12:56:56;;;;;;;6.87;6.17;;;24.80;99.90;;;;;;5072114;28;20786;-68
2021/06/15 12:59:24;;;;;;;6.03;5.53;;;24.80;99.90;;;;;;5071689;28;20417;-68
2021/06/15 13:01:53;;;;;;;5.00;4.60;;;24.90;99.90;;;;;;5071578;28;20458;-68
2021/06/15 13:04:30;;;;;;;5.90;5.40;;;25.00;99.90;;;;;;5050630;28;20522;-68
2021/06/15 13:06:59;;;;;;;5.33;4.83;;;24.60;99.90;;;;;;5070646;28;20430;-69
2021/06/15 13:09:32;;;;;;;6.73;5.00;;;24.80;99.90;;;;;;5071635;28;20820;-68
2021/06/15 13:12:04;;;;;;;6.40;5.77;;;25.00;99.90;;;;;;5070270;28;20433;-69
2021/06/15 13:14:34;;;;;;;6.03;5.43;;;25.10;99.90;;;;;;5081837;28;20427;-70